Las Cruces International Airport
KLRU : now visible

Airfield :











YOU CAN JOIN US ON...

 
LOGIN :

Register | Disclaimer

   EN    FR    IT 

 









Legend :    VFR   Marginal VFR   IFR   Intensive IFR   Very Intensive IFR
Visi :
Ceiling :
>= 8 km
>= 3000ft
5 to 8 km
1000 to 3000 ft
1500m to 5 km
500 to 1000 ft
800 to 1500m
200 to 500 ft
< 800m
< 200 ft
Symbols :   Thunderstorms  Fog  Heavy snow  Heavy precipitations  Wind > 20 kt






- Airport Elevation : 4456 ft
- IATA code : LRU


KLRU - Las Cruces International

CURRENT METAR :
  • 201935Z AUTO 10003KT 10SM CLR 29/M09 A3002 RMK AO2 T02851088

EXPIRED METARs :
  • 201915Z AUTO 00000KT 10SM CLR 28/M09 A3003 RMK AO2 T02771086
  • 201855Z AUTO 00000KT 10SM CLR 28/M08 A3004 RMK AO2 T02801083
  • 201835Z AUTO 00000KT 10SM CLR 27/M09 A3005 RMK AO2 T02661094
  • 201815Z AUTO 00000KT 10SM CLR 27/M08 A3006 RMK AO2 T02651085
  • 201755Z AUTO 18003KT 10SM CLR 26/M08 A3007 RMK AO2 T02611084 10261 20091
  • 201735Z AUTO 10003KT 10SM CLR 25/M09 A3007 RMK AO2 T02491086
  • 201715Z AUTO 00000KT 10SM CLR 24/M09 A3007 RMK AO2 T02441094
  • 201655Z AUTO 00000KT 10SM CLR 23/M08 A3007 RMK AO2 T02291081

TAF KLRU
Valid from the 20 at 18:00 until the 21 at 18:00 UTC


201743Z 2018/2118 25008KT P6SM SKC
KZAB FIR / North America



MET'MAP, your aeronautical weather chart ! - Copyright ORBIFLY December 2007 - Disclaimer

ORBIFLY MET'MAP TEAM :

Programming & Development : Alexandra Zaïnal
Concept & original design : Baudouin d'Aumeries
Assistance for programming : Marc-Olivier Méhu
Technical & hardware support : Manuel Goepfert

Contact : metmap@orbifly.com




SOURCES & CREDITS :

   NOAA       Earth
Advisory